createdAt,value
2022-11-25T00:01:28.777Z,3.95
2022-11-25T00:03:57.339Z,3.20
2022-11-25T00:06:26.971Z,3.63
2022-11-25T00:09:09.851Z,3.40
2022-11-25T00:11:42.549Z,4.28
2022-11-25T00:14:15.383Z,3.65
2022-11-25T00:16:47.967Z,4.22
2022-11-25T00:19:16.048Z,4.30
2022-11-25T00:21:43.244Z,3.63
2022-11-25T00:24:14.188Z,4.15
2022-11-25T00:26:41.469Z,3.45
2022-11-25T00:29:10.615Z,3.40
2022-11-25T00:31:40.120Z,3.60
2022-11-25T00:34:08.193Z,3.78
2022-11-25T00:36:37.632Z,3.50
2022-11-25T00:39:14.249Z,3.65
2022-11-25T00:41:59.966Z,3.92
2022-11-25T00:44:36.916Z,3.65
2022-11-25T00:47:13.064Z,3.70
2022-11-25T00:49:43.249Z,4.05
2022-11-25T00:52:17.271Z,4.00
2022-11-25T00:54:45.068Z,3.60
2022-11-25T00:57:12.856Z,3.92
2022-11-25T00:59:40.496Z,3.45
2022-11-25T01:02:08.094Z,3.40
2022-11-25T01:04:35.821Z,4.00
2022-11-25T01:07:03.858Z,3.80
2022-11-25T01:09:31.649Z,4.15
2022-11-25T01:11:59.177Z,4.10
2022-11-25T01:14:26.483Z,4.28
2022-11-25T01:16:53.863Z,4.13
2022-11-25T01:19:21.363Z,4.40
2022-11-25T01:21:48.568Z,4.15
2022-11-25T01:24:16.464Z,3.97
2022-11-25T01:26:45.338Z,3.55
2022-11-25T01:29:19.764Z,3.85
2022-11-25T01:31:47.552Z,4.22
2022-11-25T01:34:23.282Z,3.72
2022-11-25T01:36:51.187Z,4.13
2022-11-25T01:39:30.139Z,4.43
2022-11-25T01:41:59.997Z,3.80
2022-11-25T01:44:32.143Z,4.53
2022-11-25T01:46:59.672Z,4.07
2022-11-25T01:49:48.916Z,3.63
2022-11-25T01:52:29.864Z,4.32
2022-11-25T01:55:16.188Z,3.80
2022-11-25T01:58:12.367Z,3.67
2022-11-25T02:00:39.777Z,3.75
2022-11-25T02:03:08.333Z,3.63
2022-11-25T02:06:09.262Z,4.05
2022-11-25T02:08:36.499Z,4.07
2022-11-25T02:11:06.511Z,3.60
2022-11-25T02:13:34.173Z,4.68
2022-11-25T02:16:01.374Z,4.25
2022-11-25T02:18:28.725Z,4.60
2022-11-25T02:20:55.839Z,3.55
2022-11-25T02:23:29.041Z,4.03
2022-11-25T02:25:56.223Z,3.75
2022-11-25T02:28:26.645Z,4.03
2022-11-25T02:30:54.529Z,3.92
2022-11-25T02:33:22.112Z,3.78
2022-11-25T02:35:54.538Z,3.88
2022-11-25T02:38:34.073Z,3.40
2022-11-25T02:41:34.920Z,3.38
2022-11-25T02:44:02.545Z,3.38
2022-11-25T02:46:30.577Z,3.50
2022-11-25T02:49:14.782Z,3.75
2022-11-25T02:51:44.644Z,2.92
2022-11-25T02:54:17.909Z,3.80
2022-11-25T02:56:45.164Z,3.78
2022-11-25T02:59:12.763Z,3.97
2022-11-25T03:01:40.557Z,4.13
2022-11-25T03:04:08.210Z,3.88
2022-11-25T03:06:35.496Z,3.70
2022-11-25T03:09:02.788Z,3.65
2022-11-25T03:11:48.381Z,3.55
2022-11-25T03:14:15.659Z,3.50
2022-11-25T03:16:42.981Z,3.35
2022-11-25T03:19:10.311Z,3.30
2022-11-25T03:21:37.457Z,3.50
2022-11-25T03:24:04.949Z,3.60
2022-11-25T03:26:32.280Z,3.33
2022-11-25T03:28:59.340Z,3.22
2022-11-25T03:31:26.446Z,2.72
2022-11-25T03:33:53.766Z,2.90
2022-11-25T03:36:21.212Z,2.83
2022-11-25T03:38:48.476Z,3.05
2022-11-25T03:41:15.744Z,3.30
2022-11-25T03:43:42.784Z,3.42
2022-11-25T03:46:09.958Z,2.70
2022-11-25T03:48:37.261Z,2.92
2022-11-25T03:51:04.594Z,2.60
2022-11-25T03:53:31.823Z,3.10
2022-11-25T03:55:58.977Z,3.15
2022-11-25T03:58:26.124Z,3.33
2022-11-25T04:00:53.332Z,2.70
2022-11-25T04:03:20.574Z,3.10
2022-11-25T04:05:47.786Z,3.28
2022-11-25T04:08:15.029Z,2.85
2022-11-25T04:10:42.286Z,2.70
2022-11-25T04:13:09.622Z,2.85
2022-11-25T04:15:36.849Z,2.97
2022-11-25T04:18:04.295Z,2.85
2022-11-25T04:20:31.608Z,2.80
2022-11-25T04:22:58.674Z,3.20
2022-11-25T04:25:25.907Z,3.65
2022-11-25T04:27:53.275Z,2.88
2022-11-25T04:30:20.498Z,2.83
2022-11-25T04:32:47.710Z,2.88
2022-11-25T04:35:14.984Z,2.42
2022-11-25T04:37:42.266Z,3.15
2022-11-25T04:40:10.022Z,2.60
2022-11-25T04:42:39.859Z,3.13
2022-11-25T04:45:26.198Z,2.85
2022-11-25T04:47:53.594Z,3.10
2022-11-25T04:50:23.360Z,3.00
2022-11-25T04:52:51.120Z,3.22
2022-11-25T04:55:18.361Z,3.58
2022-11-25T04:57:45.730Z,3.00
2022-11-25T05:00:13.388Z,2.90
2022-11-25T05:02:40.687Z,2.90
2022-11-25T05:05:08.713Z,3.25
2022-11-25T05:07:35.950Z,3.22
2022-11-25T05:10:03.108Z,3.50
2022-11-25T05:12:30.748Z,3.17
2022-11-25T05:14:58.202Z,3.00
2022-11-25T05:17:29.551Z,3.53
2022-11-25T05:19:57.261Z,3.88
2022-11-25T05:22:28.185Z,3.50
2022-11-25T05:24:55.862Z,3.75
2022-11-25T05:27:24.031Z,3.58
2022-11-25T05:29:55.756Z,3.83
2022-11-25T05:32:23.708Z,3.80
2022-11-25T05:34:50.938Z,3.55
2022-11-25T05:37:23.943Z,3.85
2022-11-25T05:39:51.712Z,2.95
2022-11-25T05:42:18.914Z,3.53
2022-11-25T05:44:46.121Z,3.67
2022-11-25T05:47:13.567Z,3.70
2022-11-25T05:49:40.762Z,4.10
2022-11-25T05:52:08.030Z,4.20
2022-11-25T05:54:35.427Z,4.13
2022-11-25T05:57:02.883Z,4.38
2022-11-25T05:59:30.141Z,4.05
2022-11-25T06:01:57.272Z,4.07
2022-11-25T06:04:24.552Z,3.72
2022-11-25T06:06:51.576Z,3.97
2022-11-25T06:09:18.837Z,4.50
2022-11-25T06:11:46.032Z,4.60
2022-11-25T06:14:13.256Z,4.28
2022-11-25T06:16:41.595Z,4.00
2022-11-25T06:19:08.967Z,3.60
2022-11-25T06:21:37.170Z,4.35
2022-11-25T06:24:04.415Z,4.63
2022-11-25T06:26:31.670Z,4.55
2022-11-25T06:28:58.669Z,4.40
2022-11-25T06:31:27.092Z,4.63
2022-11-25T06:33:54.761Z,4.70
2022-11-25T06:36:22.859Z,5.28
2022-11-25T06:38:53.088Z,5.60
2022-11-25T06:41:21.740Z,4.60
2022-11-25T06:43:48.906Z,4.47
2022-11-25T06:46:24.557Z,4.60
2022-11-25T06:48:53.764Z,4.05
2022-11-25T06:51:21.115Z,4.32
2022-11-25T06:53:48.334Z,4.47
2022-11-25T06:56:22.228Z,7.00
2022-11-25T06:58:50.636Z,4.63
2022-11-25T07:01:26.467Z,5.45
2022-11-25T07:03:56.755Z,4.70
2022-11-25T07:06:23.981Z,4.90
2022-11-25T07:08:51.575Z,4.68
2022-11-25T07:11:21.501Z,4.28
2022-11-25T07:13:51.702Z,5.13
2022-11-25T07:16:18.826Z,4.65
2022-11-25T07:18:46.040Z,5.07
2022-11-25T07:21:19.265Z,4.20
2022-11-25T07:23:47.095Z,4.50
2022-11-25T07:26:21.828Z,5.57
2022-11-25T07:28:51.241Z,5.05
2022-11-25T07:31:31.519Z,4.43
2022-11-25T07:34:05.873Z,4.57
2022-11-25T07:36:34.155Z,4.20
2022-11-25T07:39:05.078Z,4.43
2022-11-25T07:41:32.340Z,4.57
2022-11-25T07:44:03.376Z,3.80
2022-11-25T07:46:39.088Z,4.90
2022-11-25T07:49:08.825Z,5.38
2022-11-25T07:51:53.945Z,4.22
2022-11-25T07:54:22.416Z,3.88
2022-11-25T07:56:51.032Z,4.88
2022-11-25T07:59:20.658Z,4.25
2022-11-25T08:01:54.300Z,5.57
2022-11-25T08:04:22.596Z,5.20
2022-11-25T08:06:52.015Z,4.63
2022-11-25T08:09:21.916Z,4.22
2022-11-25T08:11:49.810Z,4.20
2022-11-25T08:14:17.960Z,4.07
2022-11-25T08:16:45.660Z,5.63
2022-11-25T08:19:15.293Z,22.15
2022-11-25T08:21:42.884Z,11.63
2022-11-25T08:24:17.609Z,10.15
2022-11-25T08:26:45.501Z,4.65
2022-11-25T08:29:17.992Z,4.53
2022-11-25T08:31:45.731Z,4.75
2022-11-25T08:34:21.670Z,4.25
2022-11-25T08:36:49.294Z,4.10
2022-11-25T08:39:44.118Z,4.50
2022-11-25T08:42:07.971Z,4.65
2022-11-25T08:44:36.174Z,4.57
2022-11-25T08:47:03.327Z,4.50
2022-11-25T08:49:33.676Z,4.50
2022-11-25T08:52:03.588Z,4.22
2022-11-25T08:54:30.972Z,3.90
2022-11-25T08:56:58.502Z,3.83
2022-11-25T08:59:25.732Z,4.63
2022-11-25T09:01:53.017Z,3.60
2022-11-25T09:04:20.246Z,4.75
2022-11-25T09:06:47.378Z,4.53
2022-11-25T09:09:14.608Z,3.92
2022-11-25T09:11:42.513Z,4.10
2022-11-25T09:14:09.713Z,4.78
2022-11-25T09:16:37.150Z,3.63
2022-11-25T09:19:04.472Z,3.50
2022-11-25T09:21:31.641Z,4.25
2022-11-25T09:23:59.058Z,4.63
2022-11-25T09:26:29.559Z,3.78
2022-11-25T09:28:57.565Z,3.83
2022-11-25T09:31:25.160Z,3.97
2022-11-25T09:33:52.446Z,3.67
2022-11-25T09:36:20.969Z,3.83
2022-11-25T09:38:48.362Z,3.53
2022-11-25T09:42:03.036Z,4.03
2022-11-25T09:45:23.864Z,3.77
2022-11-25T09:48:28.388Z,3.40
2022-11-25T09:51:26.480Z,3.80
2022-11-25T09:54:22.888Z,3.90
2022-11-25T09:56:56.291Z,3.38
2022-11-25T09:59:37.315Z,4.00
2022-11-25T10:02:26.923Z,3.22
2022-11-25T10:05:23.783Z,3.03
2022-11-25T10:07:55.174Z,3.00
2022-11-25T10:10:31.143Z,3.30
2022-11-25T10:12:59.471Z,3.35
2022-11-25T10:15:44.661Z,3.10
2022-11-25T10:18:25.450Z,3.55
2022-11-25T10:20:54.409Z,3.28
2022-11-25T10:23:39.691Z,3.47
2022-11-25T10:26:20.074Z,3.15
2022-11-25T10:28:54.037Z,2.97
2022-11-25T10:31:36.430Z,3.10
2022-11-25T10:34:37.233Z,2.88
2022-11-25T10:37:12.533Z,2.85
2022-11-25T10:39:39.749Z,2.80
2022-11-25T10:42:25.049Z,2.65
2022-11-25T10:44:55.012Z,2.78
2022-11-25T10:47:33.975Z,2.65
2022-11-25T10:50:20.128Z,2.70
2022-11-25T10:53:00.197Z,2.90
2022-11-25T10:55:32.523Z,2.60
2022-11-25T10:58:19.725Z,2.17
2022-11-25T11:00:47.002Z,2.78
2022-11-25T11:03:21.036Z,2.70
2022-11-25T11:05:51.472Z,2.67
2022-11-25T11:08:23.198Z,2.67
2022-11-25T11:11:11.491Z,2.80
2022-11-25T11:13:39.488Z,4.80
2022-11-25T11:16:29.646Z,2.40
2022-11-25T11:18:57.508Z,2.88
2022-11-25T11:21:32.587Z,2.75
2022-11-25T11:24:01.212Z,2.28
2022-11-25T11:26:35.198Z,2.30
2022-11-25T11:29:02.313Z,2.28
2022-11-25T11:31:39.913Z,2.40
2022-11-25T11:34:35.295Z,2.20
2022-11-25T11:37:20.600Z,2.50
2022-11-25T11:40:06.287Z,2.47
2022-11-25T11:42:57.138Z,2.40
2022-11-25T11:45:24.417Z,2.03
2022-11-25T11:48:16.414Z,2.30
2022-11-25T11:50:52.995Z,2.15
2022-11-25T11:53:35.341Z,3.00
2022-11-25T11:59:16.729Z,2.50
2022-11-25T12:01:53.537Z,2.67
2022-11-25T12:04:29.298Z,2.78
2022-11-25T12:07:06.748Z,2.47
2022-11-25T12:09:46.677Z,2.00
2022-11-25T12:12:17.526Z,2.60
2022-11-25T12:14:52.583Z,2.85
2022-11-25T12:17:32.006Z,2.80
2022-11-25T12:20:25.335Z,2.78
2022-11-25T12:23:01.046Z,2.92
2022-11-25T12:25:40.684Z,2.55
2022-11-25T12:28:30.448Z,3.13
2022-11-25T12:31:22.698Z,3.28
2022-11-25T12:34:14.353Z,3.30
2022-11-25T12:36:44.549Z,3.13
2022-11-25T12:39:32.593Z,3.78
2022-11-25T12:42:06.418Z,3.30
2022-11-25T12:45:10.650Z,3.20
2022-11-25T12:47:37.881Z,2.95
2022-11-25T12:50:05.518Z,3.20
2022-11-25T12:52:48.552Z,3.40
2022-11-25T12:55:21.357Z,3.28
2022-11-25T12:58:32.537Z,3.25
2022-11-25T13:01:21.546Z,2.80
2022-11-25T13:04:30.181Z,3.20
2022-11-25T13:07:29.058Z,3.25
2022-11-25T13:10:33.399Z,2.63
2022-11-25T13:13:17.983Z,2.80
2022-11-25T13:15:49.515Z,2.85
2022-11-25T13:18:19.856Z,3.22
2022-11-25T13:20:51.156Z,2.97
2022-11-25T13:23:18.510Z,2.90
2022-11-25T13:25:47.708Z,2.92
2022-11-25T13:28:33.037Z,2.45
2022-11-25T13:31:21.646Z,3.25
2022-11-25T13:33:48.910Z,3.17
2022-11-25T13:36:42.915Z,2.97
2022-11-25T13:39:34.541Z,3.00
2022-11-25T13:42:22.615Z,3.03
2022-11-25T13:44:55.656Z,3.20
2022-11-25T13:47:28.616Z,2.63
2022-11-25T13:50:23.307Z,2.70
2022-11-25T13:53:05.902Z,2.90
2022-11-25T13:55:37.345Z,2.90
2022-11-25T13:58:10.393Z,2.60
2022-11-25T14:00:37.522Z,2.88
2022-11-25T14:03:45.165Z,2.80
2022-11-25T14:06:51.445Z,2.88
2022-11-25T14:09:41.440Z,3.00
2022-11-25T14:12:18.400Z,2.45
2022-11-25T14:14:57.575Z,2.60
2022-11-25T14:17:59.450Z,3.38
2022-11-25T14:20:35.504Z,3.55
2022-11-25T14:23:08.947Z,4.72
2022-11-25T14:25:54.115Z,2.63
2022-11-25T14:28:44.303Z,2.95
2022-11-25T14:31:20.335Z,3.47
2022-11-25T14:34:26.245Z,3.65
2022-11-25T14:37:00.012Z,3.70
2022-11-25T14:39:37.299Z,2.78
2022-11-25T14:42:09.935Z,3.10
2022-11-25T14:44:50.265Z,2.53
2022-11-25T14:47:23.387Z,3.10
2022-11-25T14:50:11.846Z,2.70
2022-11-25T14:52:44.042Z,2.83
2022-11-25T14:55:13.034Z,2.60
2022-11-25T14:57:44.894Z,2.83
2022-11-25T15:00:16.760Z,3.70
2022-11-25T15:03:16.988Z,3.00
2022-11-25T15:05:44.290Z,4.00
2022-11-25T15:08:15.610Z,4.28
2022-11-25T15:10:44.870Z,4.15
2022-11-25T15:13:21.026Z,4.57
2022-11-25T15:15:49.942Z,4.75
2022-11-25T15:18:23.372Z,3.63
2022-11-25T15:20:59.323Z,3.63
2022-11-25T15:23:34.847Z,2.67
2022-11-25T15:26:03.349Z,2.38
2022-11-25T15:28:39.920Z,3.30
2022-11-25T15:31:13.033Z,3.50
2022-11-25T15:33:41.906Z,2.90
2022-11-25T15:36:09.485Z,3.33
2022-11-25T15:38:43.024Z,3.00
2022-11-25T15:41:24.966Z,2.88
2022-11-25T15:43:55.685Z,3.35
2022-11-25T15:46:24.931Z,3.00
2022-11-25T15:48:54.840Z,2.90
2022-11-25T15:51:28.762Z,3.10
2022-11-25T15:54:03.537Z,2.90
2022-11-25T15:56:35.597Z,3.00
2022-11-25T15:59:02.885Z,3.88
2022-11-25T16:01:31.136Z,2.97
2022-11-25T16:04:19.596Z,3.45
2022-11-25T16:06:57.939Z,3.45
2022-11-25T16:09:27.946Z,3.00
2022-11-25T16:12:05.686Z,3.38
2022-11-25T16:14:37.042Z,3.80
2022-11-25T16:17:12.374Z,4.75
2022-11-25T16:19:43.013Z,4.18
2022-11-25T16:22:19.076Z,4.72
2022-11-25T16:24:50.852Z,5.60
2022-11-25T16:27:26.131Z,6.10
2022-11-25T16:29:57.844Z,7.10
2022-11-25T16:32:31.187Z,8.68
2022-11-25T16:35:18.589Z,7.60
2022-11-25T16:37:49.194Z,14.63
2022-11-25T16:40:18.709Z,15.18
2022-11-25T16:42:49.107Z,7.90
2022-11-25T16:45:22.583Z,4.57
2022-11-25T16:47:49.881Z,15.45
2022-11-25T16:50:18.934Z,12.23
2022-11-25T16:52:46.384Z,10.82
2022-11-25T16:55:14.140Z,7.72
2022-11-25T16:57:42.259Z,13.10
2022-11-25T17:00:18.516Z,7.82
2022-11-25T17:02:46.038Z,8.75
2022-11-25T17:05:22.723Z,4.88
2022-11-25T17:07:51.883Z,6.55
2022-11-25T17:10:20.727Z,6.53
2022-11-25T17:12:49.126Z,4.68
2022-11-25T17:15:19.711Z,4.55
2022-11-25T17:17:48.247Z,5.97
2022-11-25T17:20:21.910Z,5.38
2022-11-25T17:22:49.572Z,8.90
2022-11-25T17:25:16.949Z,5.95
2022-11-25T17:27:46.381Z,8.02
2022-11-25T17:30:26.472Z,8.45
2022-11-25T17:33:05.334Z,7.22
2022-11-25T17:35:32.792Z,6.65
2022-11-25T17:38:01.244Z,5.60
2022-11-25T17:40:28.730Z,8.52
2022-11-25T17:42:55.881Z,6.38
2022-11-25T17:45:23.056Z,8.57
2022-11-25T17:47:50.422Z,5.38
2022-11-25T17:50:21.118Z,8.80
2022-11-25T17:52:49.334Z,5.82
2022-11-25T17:55:19.885Z,5.72
2022-11-25T17:57:48.830Z,6.75
2022-11-25T18:00:19.686Z,5.43
2022-11-25T18:02:47.083Z,8.38
2022-11-25T18:05:23.171Z,4.63
2022-11-25T18:07:51.300Z,4.93
2022-11-25T18:10:22.133Z,4.60
2022-11-25T18:12:52.467Z,4.10
2022-11-25T18:15:22.808Z,3.22
2022-11-25T18:17:51.851Z,3.83
2022-11-25T18:20:22.377Z,3.97
2022-11-25T18:22:51.314Z,3.78
2022-11-25T18:25:23.657Z,4.70
2022-11-25T18:27:56.503Z,3.60
2022-11-25T18:30:27.872Z,3.88
2022-11-25T18:32:56.445Z,3.88
2022-11-25T18:35:35.435Z,4.75
2022-11-25T18:38:03.129Z,3.83
2022-11-25T18:40:30.744Z,4.18
2022-11-25T18:43:01.222Z,3.25
2022-11-25T18:45:33.450Z,3.40
2022-11-25T18:48:00.657Z,3.47
2022-11-25T18:50:28.608Z,4.40
2022-11-25T18:52:55.879Z,4.20
2022-11-25T18:55:24.317Z,4.05
2022-11-25T18:57:53.730Z,3.65
2022-11-25T19:00:32.174Z,4.03
2022-11-25T19:03:01.384Z,4.40
2022-11-25T19:05:33.553Z,4.68
2022-11-25T19:08:01.337Z,3.75
2022-11-25T19:10:33.426Z,4.15
2022-11-25T19:13:09.028Z,4.38
2022-11-25T19:15:37.640Z,4.43
2022-11-25T19:18:06.918Z,3.50
2022-11-25T19:20:34.294Z,4.28
2022-11-25T19:23:16.259Z,4.05
2022-11-25T19:25:44.244Z,3.58
2022-11-25T19:28:14.543Z,3.72
2022-11-25T19:30:42.181Z,3.58
2022-11-25T19:33:24.915Z,5.07
2022-11-25T19:35:52.257Z,3.50
2022-11-25T19:38:21.597Z,3.83
2022-11-25T19:40:49.633Z,4.05
2022-11-25T19:43:16.696Z,3.53
2022-11-25T19:45:44.884Z,4.18
2022-11-25T19:48:18.313Z,4.00
2022-11-25T19:50:48.298Z,3.93
2022-11-25T19:53:22.554Z,3.40
2022-11-25T19:58:19.200Z,4.03
2022-11-25T20:00:48.009Z,4.10
2022-11-25T20:03:24.533Z,4.55
2022-11-25T20:05:53.319Z,4.38
2022-11-25T20:08:25.033Z,4.45
2022-11-25T20:10:52.717Z,4.40
2022-11-25T20:13:20.382Z,4.75
2022-11-25T20:15:47.437Z,4.28
2022-11-25T20:18:21.013Z,4.10
2022-11-25T20:21:04.570Z,4.38
2022-11-25T20:23:43.707Z,3.67
2022-11-25T20:26:38.094Z,4.20
2022-11-25T20:29:18.984Z,5.18
2022-11-25T20:31:46.487Z,4.43
2022-11-25T20:34:14.135Z,4.90
2022-11-25T20:36:43.453Z,4.70
2022-11-25T20:39:18.114Z,4.93
2022-11-25T20:41:50.415Z,4.78
2022-11-25T20:44:18.680Z,4.30
2022-11-25T20:46:45.995Z,4.70
2022-11-25T20:49:39.393Z,4.55
2022-11-25T20:52:07.297Z,5.15
2022-11-25T20:54:37.129Z,4.50
2022-11-25T20:57:06.104Z,4.78
2022-11-25T20:59:35.867Z,4.55
2022-11-25T21:02:03.088Z,5.20
2022-11-25T21:04:30.250Z,4.97
2022-11-25T21:06:57.533Z,4.95
2022-11-25T21:09:30.804Z,4.95
2022-11-25T21:11:58.171Z,5.00
2022-11-25T21:14:25.672Z,5.30
2022-11-25T21:16:52.684Z,5.78
2022-11-25T21:19:19.951Z,5.65
2022-11-25T21:21:49.582Z,6.22
2022-11-25T21:24:30.654Z,5.03
2022-11-25T21:27:00.243Z,5.63
2022-11-25T21:29:28.333Z,4.95
2022-11-25T21:31:56.192Z,5.82
2022-11-25T21:34:23.476Z,6.28
2022-11-25T21:36:52.512Z,5.88
2022-11-25T21:39:37.817Z,5.07
2022-11-25T21:42:10.875Z,6.72
2022-11-25T21:44:40.460Z,5.63
2022-11-25T21:47:25.468Z,6.00
2022-11-25T21:49:52.949Z,6.05
2022-11-25T21:52:20.033Z,6.10
2022-11-25T21:54:47.454Z,8.60
2022-11-25T21:57:20.704Z,7.63
2022-11-25T21:59:48.766Z,5.60
2022-11-25T22:02:22.463Z,7.05
2022-11-25T22:04:49.637Z,6.13
2022-11-25T22:07:17.031Z,6.68
2022-11-25T22:09:44.240Z,6.93
2022-11-25T22:12:30.324Z,6.97
2022-11-25T22:14:59.533Z,6.63
2022-11-25T22:17:27.034Z,7.32
2022-11-25T22:19:54.066Z,7.30
2022-11-25T22:22:21.630Z,6.18
2022-11-25T22:24:48.778Z,7.45
2022-11-25T22:27:28.430Z,6.85
2022-11-25T22:29:56.013Z,6.97
2022-11-25T22:32:23.469Z,7.07
2022-11-25T22:34:50.535Z,6.93
2022-11-25T22:37:22.881Z,7.07
2022-11-25T22:39:49.921Z,6.60
2022-11-25T22:42:27.921Z,6.60
2022-11-25T22:44:56.554Z,7.10
2022-11-25T22:47:41.049Z,7.38
2022-11-25T22:50:22.827Z,6.65
2022-11-25T22:52:50.631Z,7.35
2022-11-25T22:55:23.112Z,6.72
2022-11-25T22:57:52.609Z,6.78
2022-11-25T23:00:29.175Z,6.15
2022-11-25T23:02:58.347Z,6.25
2022-11-25T23:05:32.233Z,6.38
2022-11-25T23:08:01.161Z,5.80
2022-11-25T23:10:31.186Z,8.45
2022-11-25T23:12:58.172Z,7.35
2022-11-25T23:15:27.361Z,6.50
2022-11-25T23:17:59.984Z,6.80
2022-11-25T23:20:26.970Z,6.07
2022-11-25T23:22:54.152Z,6.35
2022-11-25T23:25:22.733Z,7.03
2022-11-25T23:27:49.840Z,5.65
2022-11-25T23:30:22.346Z,6.85
2022-11-25T23:32:52.835Z,5.78
2022-11-25T23:35:26.706Z,6.28
2022-11-25T23:40:23.717Z,5.88
2022-11-25T23:42:51.766Z,5.95
2022-11-25T23:45:21.436Z,6.80
2022-11-25T23:47:50.611Z,6.68
2022-11-25T23:50:33.556Z,6.25
2022-11-25T23:53:04.036Z,7.18
2022-11-25T23:55:39.490Z,6.88
2022-11-25T23:58:17.833Z,6.45
